sensor_id;sensor_type;location;lat;lon;timestamp;temperature;humidity
16823;DHT22;8528;49.976;11.858;2022-11-15T00:01:18;1.20;99.90
16823;DHT22;8528;49.976;11.858;2022-11-15T00:03:46;1.30;99.90
16823;DHT22;8528;49.976;11.858;2022-11-15T00:06:13;1.40;99.90
16823;DHT22;8528;49.976;11.858;2022-11-15T00:08:40;1.30;99.90
16823;DHT22;8528;49.976;11.858;2022-11-15T00:11:10;1.40;99.90
16823;DHT22;8528;49.976;11.858;2022-11-15T00:13:37;1.40;99.90
16823;DHT22;8528;49.976;11.858;2022-11-15T00:16:04;1.50;99.90
16823;DHT22;8528;49.976;11.858;2022-11-15T00:18:31;1.60;99.90
16823;DHT22;8528;49.976;11.858;2022-11-15T00:21:07;1.60;99.90
16823;DHT22;8528;49.976;11.858;2022-11-15T00:23:35;1.60;99.90
16823;DHT22;8528;49.976;11.858;2022-11-15T00:26:02;1.60;99.90
16823;DHT22;8528;49.976;11.858;2022-11-15T00:28:30;1.60;99.90
16823;DHT22;8528;49.976;11.858;2022-11-15T00:31:03;1.50;99.90
16823;DHT22;8528;49.976;11.858;2022-11-15T00:33:30;1.50;99.90
16823;DHT22;8528;49.976;11.858;2022-11-15T00:36:07;1.40;99.90
16823;DHT22;8528;49.976;11.858;2022-11-15T00:38:39;1.40;99.90
16823;DHT22;8528;49.976;11.858;2022-11-15T00:41:07;1.20;99.90
16823;DHT22;8528;49.976;11.858;2022-11-15T00:43:36;1.20;99.90
16823;DHT22;8528;49.976;11.858;2022-11-15T00:46:04;1.10;99.90
16823;DHT22;8528;49.976;11.858;2022-11-15T00:48:31;1.10;99.90
16823;DHT22;8528;49.976;11.858;2022-11-15T00:50:59;1.00;99.90
16823;DHT22;8528;49.976;11.858;2022-11-15T00:53:26;0.90;99.90
16823;DHT22;8528;49.976;11.858;2022-11-15T00:55:53;0.90;99.90
16823;DHT22;8528;49.976;11.858;2022-11-15T00:58:20;1.00;99.90
16823;DHT22;8528;49.976;11.858;2022-11-15T01:00:47;1.00;99.90
16823;DHT22;8528;49.976;11.858;2022-11-15T01:03:15;0.90;99.90
16823;DHT22;8528;49.976;11.858;2022-11-15T01:05:42;1.00;99.90
16823;DHT22;8528;49.976;11.858;2022-11-15T01:08:16;1.00;99.90
16823;DHT22;8528;49.976;11.858;2022-11-15T01:10:43;1.00;99.90
16823;DHT22;8528;49.976;11.858;2022-11-15T01:13:10;1.00;99.90
16823;DHT22;8528;49.976;11.858;2022-11-15T01:15:40;1.00;99.90
16823;DHT22;8528;49.976;11.858;2022-11-15T01:18:07;0.90;99.90
16823;DHT22;8528;49.976;11.858;2022-11-15T01:20:39;0.90;99.90
16823;DHT22;8528;49.976;11.858;2022-11-15T01:23:07;0.90;99.90
16823;DHT22;8528;49.976;11.858;2022-11-15T01:25:34;0.80;99.90
16823;DHT22;8528;49.976;11.858;2022-11-15T01:28:01;0.80;99.90
16823;DHT22;8528;49.976;11.858;2022-11-15T01:30:28;0.70;99.90
16823;DHT22;8528;49.976;11.858;2022-11-15T01:32:54;0.70;99.90
16823;DHT22;8528;49.976;11.858;2022-11-15T01:35:21;0.70;99.90
16823;DHT22;8528;49.976;11.858;2022-11-15T01:37:48;0.70;99.90
16823;DHT22;8528;49.976;11.858;2022-11-15T01:40:15;0.70;99.90
16823;DHT22;8528;49.976;11.858;2022-11-15T01:42:42;0.60;99.90
16823;DHT22;8528;49.976;11.858;2022-11-15T01:45:16;0.60;99.90
16823;DHT22;8528;49.976;11.858;2022-11-15T01:47:46;0.50;99.90
16823;DHT22;8528;49.976;11.858;2022-11-15T01:50:19;0.70;99.90
16823;DHT22;8528;49.976;11.858;2022-11-15T01:52:48;0.70;99.90
16823;DHT22;8528;49.976;11.858;2022-11-15T01:55:24;0.70;99.90
16823;DHT22;8528;49.976;11.858;2022-11-15T01:57:56;0.60;99.90
16823;DHT22;8528;49.976;11.858;2022-11-15T02:00:24;0.60;99.90
16823;DHT22;8528;49.976;11.858;2022-11-15T02:02:51;0.60;99.90
16823;DHT22;8528;49.976;11.858;2022-11-15T02:05:18;0.50;99.90
16823;DHT22;8528;49.976;11.858;2022-11-15T02:07:46;0.40;99.90
16823;DHT22;8528;49.976;11.858;2022-11-15T02:10:19;0.50;99.90
16823;DHT22;8528;49.976;11.858;2022-11-15T02:12:47;0.40;99.90
16823;DHT22;8528;49.976;11.858;2022-11-15T02:15:15;0.40;99.90
16823;DHT22;8528;49.976;11.858;2022-11-15T02:18:03;0.30;99.90
16823;DHT22;8528;49.976;11.858;2022-11-15T02:29:04;0.10;99.90
16823;DHT22;8528;49.976;11.858;2022-11-15T02:37:06;-0.10;99.90
16823;DHT22;8528;49.976;11.858;2022-11-15T02:43:08;0.00;99.90
16823;DHT22;8528;49.976;11.858;2022-11-15T02:46:12;0.00;99.90
16823;DHT22;8528;49.976;11.858;2022-11-15T02:48:42;0.00;99.90
16823;DHT22;8528;49.976;11.858;2022-11-15T02:51:10;0.00;99.90
16823;DHT22;8528;49.976;11.858;2022-11-15T02:53:37;0.00;99.90
16823;DHT22;8528;49.976;11.858;2022-11-15T02:56:04;0.00;99.90
16823;DHT22;8528;49.976;11.858;2022-11-15T03:07:14;-0.10;99.90
16823;DHT22;8528;49.976;11.858;2022-11-15T03:09:52;-0.10;99.90
16823;DHT22;8528;49.976;11.858;2022-11-15T03:12:46;-0.10;99.90
16823;DHT22;8528;49.976;11.858;2022-11-15T03:15:23;-0.10;99.90
16823;DHT22;8528;49.976;11.858;2022-11-15T03:18:04;-0.10;99.90
16823;DHT22;8528;49.976;11.858;2022-11-15T03:20:35;-0.10;99.90
16823;DHT22;8528;49.976;11.858;2022-11-15T03:23:08;-0.20;99.90
16823;DHT22;8528;49.976;11.858;2022-11-15T03:25:43;-0.20;99.90
16823;DHT22;8528;49.976;11.858;2022-11-15T03:28:16;-0.20;99.90
16823;DHT22;8528;49.976;11.858;2022-11-15T03:30:46;-0.20;99.90
16823;DHT22;8528;49.976;11.858;2022-11-15T03:33:14;-0.20;99.90
16823;DHT22;8528;49.976;11.858;2022-11-15T03:35:45;-0.20;99.90
16823;DHT22;8528;49.976;11.858;2022-11-15T03:38:24;-0.20;99.90
16823;DHT22;8528;49.976;11.858;2022-11-15T03:41:12;-0.20;99.90
16823;DHT22;8528;49.976;11.858;2022-11-15T03:46:32;-0.20;99.90
16823;DHT22;8528;49.976;11.858;2022-11-15T03:49:17;-0.20;99.90
16823;DHT22;8528;49.976;11.858;2022-11-15T03:51:47;-0.30;99.90
16823;DHT22;8528;49.976;11.858;2022-11-15T03:54:14;-0.30;99.90
16823;DHT22;8528;49.976;11.858;2022-11-15T03:56:41;-0.40;99.90
16823;DHT22;8528;49.976;11.858;2022-11-15T03:59:08;-0.30;99.90
16823;DHT22;8528;49.976;11.858;2022-11-15T04:01:34;-0.50;99.90
16823;DHT22;8528;49.976;11.858;2022-11-15T04:04:01;-0.50;99.90
16823;DHT22;8528;49.976;11.858;2022-11-15T04:06:30;-0.50;99.90
16823;DHT22;8528;49.976;11.858;2022-11-15T04:08:56;-0.40;99.90
16823;DHT22;8528;49.976;11.858;2022-11-15T04:11:23;-0.30;99.90
16823;DHT22;8528;49.976;11.858;2022-11-15T04:13:50;-0.30;99.90
16823;DHT22;8528;49.976;11.858;2022-11-15T04:16:17;-0.30;99.90
16823;DHT22;8528;49.976;11.858;2022-11-15T04:18:44;-0.20;99.90
16823;DHT22;8528;49.976;11.858;2022-11-15T04:21:13;-0.20;99.90
16823;DHT22;8528;49.976;11.858;2022-11-15T04:23:59;-0.30;99.90
16823;DHT22;8528;49.976;11.858;2022-11-15T04:26:32;-0.40;99.90
16823;DHT22;8528;49.976;11.858;2022-11-15T04:28:59;-0.30;99.90
16823;DHT22;8528;49.976;11.858;2022-11-15T04:31:45;-0.40;99.90
16823;DHT22;8528;49.976;11.858;2022-11-15T04:34:12;-0.40;99.90
16823;DHT22;8528;49.976;11.858;2022-11-15T04:36:38;-0.40;99.90
16823;DHT22;8528;49.976;11.858;2022-11-15T04:39:24;-0.40;99.90
16823;DHT22;8528;49.976;11.858;2022-11-15T04:41:51;-0.30;99.90
16823;DHT22;8528;49.976;11.858;2022-11-15T04:44:17;-0.30;99.90
16823;DHT22;8528;49.976;11.858;2022-11-15T04:46:44;-0.30;99.90
16823;DHT22;8528;49.976;11.858;2022-11-15T04:49:11;-0.30;99.90
16823;DHT22;8528;49.976;11.858;2022-11-15T04:51:38;-0.30;99.90
16823;DHT22;8528;49.976;11.858;2022-11-15T04:54:05;-0.30;99.90
16823;DHT22;8528;49.976;11.858;2022-11-15T04:56:31;-0.40;99.90
16823;DHT22;8528;49.976;11.858;2022-11-15T04:58:58;-0.40;99.90
16823;DHT22;8528;49.976;11.858;2022-11-15T05:01:28;-0.50;99.90
16823;DHT22;8528;49.976;11.858;2022-11-15T05:04:00;-0.50;99.90
16823;DHT22;8528;49.976;11.858;2022-11-15T05:06:50;-0.50;99.90
16823;DHT22;8528;49.976;11.858;2022-11-15T05:09:20;-0.60;99.90
16823;DHT22;8528;49.976;11.858;2022-11-15T05:11:48;-0.50;99.90
16823;DHT22;8528;49.976;11.858;2022-11-15T05:14:15;-0.40;99.90
16823;DHT22;8528;49.976;11.858;2022-11-15T05:16:44;-0.40;99.90
16823;DHT22;8528;49.976;11.858;2022-11-15T05:19:11;-0.50;99.90
16823;DHT22;8528;49.976;11.858;2022-11-15T05:21:38;-0.50;99.90
16823;DHT22;8528;49.976;11.858;2022-11-15T05:24:12;-0.50;99.90
16823;DHT22;8528;49.976;11.858;2022-11-15T05:26:39;-0.50;99.90
16823;DHT22;8528;49.976;11.858;2022-11-15T05:29:05;-0.50;99.90
16823;DHT22;8528;49.976;11.858;2022-11-15T05:31:33;-0.60;99.90
16823;DHT22;8528;49.976;11.858;2022-11-15T05:34:05;-0.70;99.90
16823;DHT22;8528;49.976;11.858;2022-11-15T05:36:38;-0.70;99.90
16823;DHT22;8528;49.976;11.858;2022-11-15T05:39:06;-0.70;99.90
16823;DHT22;8528;49.976;11.858;2022-11-15T05:41:42;-0.80;99.90
16823;DHT22;8528;49.976;11.858;2022-11-15T05:44:12;-0.80;99.90
16823;DHT22;8528;49.976;11.858;2022-11-15T05:46:40;-0.80;99.90
16823;DHT22;8528;49.976;11.858;2022-11-15T05:49:13;-0.90;99.90
16823;DHT22;8528;49.976;11.858;2022-11-15T05:51:44;-0.80;99.90
16823;DHT22;8528;49.976;11.858;2022-11-15T05:54:13;-0.90;99.90
16823;DHT22;8528;49.976;11.858;2022-11-15T05:56:48;-0.90;99.90
16823;DHT22;8528;49.976;11.858;2022-11-15T05:59:16;-0.90;99.90
16823;DHT22;8528;49.976;11.858;2022-11-15T06:01:43;-0.90;99.90
16823;DHT22;8528;49.976;11.858;2022-11-15T06:04:10;-1.00;99.90
16823;DHT22;8528;49.976;11.858;2022-11-15T06:06:39;-1.00;99.90
16823;DHT22;8528;49.976;11.858;2022-11-15T06:09:05;-1.00;99.90
16823;DHT22;8528;49.976;11.858;2022-11-15T06:11:32;-1.00;99.90
16823;DHT22;8528;49.976;11.858;2022-11-15T06:13:59;-1.00;99.90
16823;DHT22;8528;49.976;11.858;2022-11-15T06:16:26;-1.00;99.90
16823;DHT22;8528;49.976;11.858;2022-11-15T06:18:53;-1.00;99.90
16823;DHT22;8528;49.976;11.858;2022-11-15T06:21:20;-1.00;99.90
16823;DHT22;8528;49.976;11.858;2022-11-15T06:23:48;-1.00;99.90
16823;DHT22;8528;49.976;11.858;2022-11-15T06:26:15;-1.00;99.90
16823;DHT22;8528;49.976;11.858;2022-11-15T06:28:42;-0.90;99.90
16823;DHT22;8528;49.976;11.858;2022-11-15T06:31:10;-0.90;99.90
16823;DHT22;8528;49.976;11.858;2022-11-15T06:33:38;-0.90;99.90
16823;DHT22;8528;49.976;11.858;2022-11-15T06:36:11;-0.90;99.90
16823;DHT22;8528;49.976;11.858;2022-11-15T06:38:44;-0.90;99.90
16823;DHT22;8528;49.976;11.858;2022-11-15T06:41:15;-0.90;99.90
16823;DHT22;8528;49.976;11.858;2022-11-15T06:43:44;-1.00;99.90
16823;DHT22;8528;49.976;11.858;2022-11-15T06:46:10;-1.00;99.90
16823;DHT22;8528;49.976;11.858;2022-11-15T06:48:38;-0.90;99.90
16823;DHT22;8528;49.976;11.858;2022-11-15T06:51:07;-1.00;99.90
16823;DHT22;8528;49.976;11.858;2022-11-15T06:53:35;-0.90;99.90
16823;DHT22;8528;49.976;11.858;2022-11-15T06:56:04;-0.80;99.90
16823;DHT22;8528;49.976;11.858;2022-11-15T06:58:31;-0.80;99.90
16823;DHT22;8528;49.976;11.858;2022-11-15T07:01:07;-0.80;99.90
16823;DHT22;8528;49.976;11.858;2022-11-15T07:03:38;-0.70;99.90
16823;DHT22;8528;49.976;11.858;2022-11-15T07:06:05;-0.60;99.90
16823;DHT22;8528;49.976;11.858;2022-11-15T07:08:34;-0.50;99.90
16823;DHT22;8528;49.976;11.858;2022-11-15T07:11:03;-0.30;99.90
16823;DHT22;8528;49.976;11.858;2022-11-15T07:13:32;0.20;99.90
16823;DHT22;8528;49.976;11.858;2022-11-15T07:16:06;0.40;99.90
16823;DHT22;8528;49.976;11.858;2022-11-15T07:18:36;0.60;99.90
16823;DHT22;8528;49.976;11.858;2022-11-15T07:21:08;0.80;99.90
16823;DHT22;8528;49.976;11.858;2022-11-15T07:23:38;0.80;99.90
16823;DHT22;8528;49.976;11.858;2022-11-15T07:26:06;0.70;99.90
16823;DHT22;8528;49.976;11.858;2022-11-15T07:28:33;0.70;99.90
16823;DHT22;8528;49.976;11.858;2022-11-15T07:31:03;0.70;99.90
16823;DHT22;8528;49.976;11.858;2022-11-15T07:33:35;0.70;99.90
16823;DHT22;8528;49.976;11.858;2022-11-15T07:36:03;0.80;99.90
16823;DHT22;8528;49.976;11.858;2022-11-15T07:38:31;0.90;99.90
16823;DHT22;8528;49.976;11.858;2022-11-15T07:41:05;0.90;99.90
16823;DHT22;8528;49.976;11.858;2022-11-15T07:43:33;1.10;99.90
16823;DHT22;8528;49.976;11.858;2022-11-15T07:46:05;1.30;99.90
16823;DHT22;8528;49.976;11.858;2022-11-15T07:48:37;1.40;99.90
16823;DHT22;8528;49.976;11.858;2022-11-15T07:51:15;1.70;99.90
16823;DHT22;8528;49.976;11.858;2022-11-15T07:53:43;1.80;99.90
16823;DHT22;8528;49.976;11.858;2022-11-15T07:56:10;1.70;99.90
16823;DHT22;8528;49.976;11.858;2022-11-15T07:58:37;1.80;99.90
16823;DHT22;8528;49.976;11.858;2022-11-15T08:01:06;1.90;99.90
16823;DHT22;8528;49.976;11.858;2022-11-15T08:03:34;2.00;99.90
16823;DHT22;8528;49.976;11.858;2022-11-15T08:06:01;2.10;99.90
16823;DHT22;8528;49.976;11.858;2022-11-15T08:08:29;2.20;99.90
16823;DHT22;8528;49.976;11.858;2022-11-15T08:10:57;2.40;99.90
16823;DHT22;8528;49.976;11.858;2022-11-15T08:13:26;2.50;99.90
16823;DHT22;8528;49.976;11.858;2022-11-15T08:15:58;2.60;99.90
16823;DHT22;8528;49.976;11.858;2022-11-15T08:18:25;2.60;99.90
16823;DHT22;8528;49.976;11.858;2022-11-15T08:20:52;2.70;99.90
16823;DHT22;8528;49.976;11.858;2022-11-15T08:23:19;2.70;99.90
16823;DHT22;8528;49.976;11.858;2022-11-15T08:25:46;2.90;99.90
16823;DHT22;8528;49.976;11.858;2022-11-15T08:28:12;3.00;99.90
16823;DHT22;8528;49.976;11.858;2022-11-15T08:30:43;3.20;99.90
16823;DHT22;8528;49.976;11.858;2022-11-15T08:33:13;3.40;99.90
16823;DHT22;8528;49.976;11.858;2022-11-15T08:35:41;3.70;99.90
16823;DHT22;8528;49.976;11.858;2022-11-15T08:38:08;3.80;99.90
16823;DHT22;8528;49.976;11.858;2022-11-15T08:40:36;4.00;99.90
16823;DHT22;8528;49.976;11.858;2022-11-15T08:43:03;4.10;99.90
16823;DHT22;8528;49.976;11.858;2022-11-15T08:45:31;4.30;99.90
16823;DHT22;8528;49.976;11.858;2022-11-15T08:48:01;4.40;99.90
16823;DHT22;8528;49.976;11.858;2022-11-15T08:50:28;4.50;99.90
16823;DHT22;8528;49.976;11.858;2022-11-15T08:52:55;4.60;99.90
16823;DHT22;8528;49.976;11.858;2022-11-15T08:55:24;4.80;99.90
16823;DHT22;8528;49.976;11.858;2022-11-15T08:57:51;4.80;99.90
16823;DHT22;8528;49.976;11.858;2022-11-15T09:00:19;5.10;99.90
16823;DHT22;8528;49.976;11.858;2022-11-15T09:02:47;5.30;99.90
16823;DHT22;8528;49.976;11.858;2022-11-15T09:05:14;5.50;99.90
16823;DHT22;8528;49.976;11.858;2022-11-15T09:07:42;5.70;99.90
16823;DHT22;8528;49.976;11.858;2022-11-15T09:10:09;5.90;99.90
16823;DHT22;8528;49.976;11.858;2022-11-15T09:12:36;6.10;99.90
16823;DHT22;8528;49.976;11.858;2022-11-15T09:15:04;6.30;99.90
16823;DHT22;8528;49.976;11.858;2022-11-15T09:17:32;6.40;99.90
16823;DHT22;8528;49.976;11.858;2022-11-15T09:19:59;6.50;99.90
16823;DHT22;8528;49.976;11.858;2022-11-15T09:22:25;6.70;99.90
16823;DHT22;8528;49.976;11.858;2022-11-15T09:24:52;7.00;99.90
16823;DHT22;8528;49.976;11.858;2022-11-15T09:27:19;7.20;99.90
16823;DHT22;8528;49.976;11.858;2022-11-15T09:29:47;7.30;99.90
16823;DHT22;8528;49.976;11.858;2022-11-15T09:32:14;7.50;99.90
16823;DHT22;8528;49.976;11.858;2022-11-15T09:34:41;7.60;99.90
16823;DHT22;8528;49.976;11.858;2022-11-15T09:37:07;7.80;99.90
16823;DHT22;8528;49.976;11.858;2022-11-15T09:39:35;8.00;99.90
16823;DHT22;8528;49.976;11.858;2022-11-15T09:42:23;8.20;99.90
16823;DHT22;8528;49.976;11.858;2022-11-15T09:45:11;8.40;99.90
16823;DHT22;8528;49.976;11.858;2022-11-15T09:50:49;8.70;99.90
16823;DHT22;8528;49.976;11.858;2022-11-15T09:56:48;9.00;99.90
16823;DHT22;8528;49.976;11.858;2022-11-15T09:59:17;9.20;99.90
16823;DHT22;8528;49.976;11.858;2022-11-15T10:04:37;9.40;99.90
16823;DHT22;8528;49.976;11.858;2022-11-15T10:12:58;9.80;99.90
16823;DHT22;8528;49.976;11.858;2022-11-15T10:15:25;9.90;99.90
16823;DHT22;8528;49.976;11.858;2022-11-15T10:18:20;10.10;99.90
16823;DHT22;8528;49.976;11.858;2022-11-15T10:20:59;10.20;99.90
16823;DHT22;8528;49.976;11.858;2022-11-15T10:23:27;10.30;99.90
16823;DHT22;8528;49.976;11.858;2022-11-15T10:25:57;10.30;99.90
16823;DHT22;8528;49.976;11.858;2022-11-15T10:28:32;10.40;99.90
16823;DHT22;8528;49.976;11.858;2022-11-15T10:31:00;10.40;99.90
16823;DHT22;8528;49.976;11.858;2022-11-15T10:33:33;10.40;99.90
16823;DHT22;8528;49.976;11.858;2022-11-15T10:43:43;10.70;99.90
16823;DHT22;8528;49.976;11.858;2022-11-15T10:46:20;10.80;99.90
16823;DHT22;8528;49.976;11.858;2022-11-15T10:49:19;10.80;99.90
16823;DHT22;8528;49.976;11.858;2022-11-15T10:51:53;10.90;99.90
16823;DHT22;8528;49.976;11.858;2022-11-15T10:54:42;11.00;99.90
16823;DHT22;8528;49.976;11.858;2022-11-15T10:57:33;11.10;99.90
16823;DHT22;8528;49.976;11.858;2022-11-15T11:00:29;11.30;99.90
16823;DHT22;8528;49.976;11.858;2022-11-15T11:05:33;11.50;99.90
16823;DHT22;8528;49.976;11.858;2022-11-15T11:10:37;11.70;99.90
16823;DHT22;8528;49.976;11.858;2022-11-15T11:13:28;11.80;99.90
16823;DHT22;8528;49.976;11.858;2022-11-15T11:24:53;12.30;99.90
16823;DHT22;8528;49.976;11.858;2022-11-15T11:33:02;12.30;99.90
16823;DHT22;8528;49.976;11.858;2022-11-15T11:36:00;12.40;99.90
16823;DHT22;8528;49.976;11.858;2022-11-15T11:38:39;12.40;99.90
16823;DHT22;8528;49.976;11.858;2022-11-15T11:44:05;12.30;99.90
16823;DHT22;8528;49.976;11.858;2022-11-15T11:46:55;12.30;99.90
16823;DHT22;8528;49.976;11.858;2022-11-15T11:49:31;12.40;99.90
16823;DHT22;8528;49.976;11.858;2022-11-15T11:52:08;12.50;99.90
16823;DHT22;8528;49.976;11.858;2022-11-15T12:00:40;12.70;99.90
16823;DHT22;8528;49.976;11.858;2022-11-15T12:03:29;12.70;99.90
16823;DHT22;8528;49.976;11.858;2022-11-15T12:06:14;12.90;99.90
16823;DHT22;8528;49.976;11.858;2022-11-15T12:08:52;13.00;99.90
16823;DHT22;8528;49.976;11.858;2022-11-15T12:16:50;12.90;99.90
16823;DHT22;8528;49.976;11.858;2022-11-15T12:19:17;12.80;99.90
16823;DHT22;8528;49.976;11.858;2022-11-15T12:24:40;12.90;99.90
16823;DHT22;8528;49.976;11.858;2022-11-15T12:30:02;12.90;99.90
16823;DHT22;8528;49.976;11.858;2022-11-15T12:32:37;12.80;99.90
16823;DHT22;8528;49.976;11.858;2022-11-15T12:35:25;12.80;99.90
16823;DHT22;8528;49.976;11.858;2022-11-15T12:37:54;12.90;99.90
16823;DHT22;8528;49.976;11.858;2022-11-15T12:40:28;12.80;99.90
16823;DHT22;8528;49.976;11.858;2022-11-15T12:42:58;12.70;99.90
16823;DHT22;8528;49.976;11.858;2022-11-15T12:45:37;12.80;99.90
16823;DHT22;8528;49.976;11.858;2022-11-15T12:51:03;12.70;99.90
16823;DHT22;8528;49.976;11.858;2022-11-15T12:53:32;12.70;99.90
16823;DHT22;8528;49.976;11.858;2022-11-15T12:58:53;12.70;99.90
16823;DHT22;8528;49.976;11.858;2022-11-15T13:06:57;12.60;99.90
16823;DHT22;8528;49.976;11.858;2022-11-15T13:12:02;12.40;99.90
16823;DHT22;8528;49.976;11.858;2022-11-15T13:14:46;12.30;99.90
16823;DHT22;8528;49.976;11.858;2022-11-15T13:19:49;12.20;99.90
16823;DHT22;8528;49.976;11.858;2022-11-15T13:22:18;12.20;99.90
16823;DHT22;8528;49.976;11.858;2022-11-15T13:25:04;12.10;99.90
16823;DHT22;8528;49.976;11.858;2022-11-15T13:27:44;12.10;99.90
16823;DHT22;8528;49.976;11.858;2022-11-15T13:30:31;12.10;99.90
16823;DHT22;8528;49.976;11.858;2022-11-15T13:33:07;12.00;99.90
16823;DHT22;8528;49.976;11.858;2022-11-15T13:35:39;11.90;99.90
16823;DHT22;8528;49.976;11.858;2022-11-15T13:38:06;11.80;99.90
16823;DHT22;8528;49.976;11.858;2022-11-15T13:40:37;11.70;99.90
16823;DHT22;8528;49.976;11.858;2022-11-15T13:48:42;11.10;99.90
16823;DHT22;8528;49.976;11.858;2022-11-15T13:54:02;10.50;99.90
16823;DHT22;8528;49.976;11.858;2022-11-15T13:56:31;10.30;99.90
16823;DHT22;8528;49.976;11.858;2022-11-15T13:58:58;10.00;99.90
16823;DHT22;8528;49.976;11.858;2022-11-15T14:01:28;9.90;99.90
16823;DHT22;8528;49.976;11.858;2022-11-15T14:03:59;9.80;99.90
16823;DHT22;8528;49.976;11.858;2022-11-15T14:06:28;9.70;99.90
16823;DHT22;8528;49.976;11.858;2022-11-15T14:09:14;9.60;99.90
16823;DHT22;8528;49.976;11.858;2022-11-15T14:11:50;9.50;99.90
16823;DHT22;8528;49.976;11.858;2022-11-15T14:14:23;9.40;99.90
16823;DHT22;8528;49.976;11.858;2022-11-15T14:16:58;9.20;99.90
16823;DHT22;8528;49.976;11.858;2022-11-15T14:24:45;8.90;99.90
16823;DHT22;8528;49.976;11.858;2022-11-15T14:27:25;8.80;99.90
16823;DHT22;8528;49.976;11.858;2022-11-15T14:29:53;8.70;99.90
16823;DHT22;8528;49.976;11.858;2022-11-15T14:33:11;8.70;99.90
16823;DHT22;8528;49.976;11.858;2022-11-15T14:35:16;8.70;99.90
16823;DHT22;8528;49.976;11.858;2022-11-15T14:37:45;8.70;99.90
16823;DHT22;8528;49.976;11.858;2022-11-15T14:40:21;8.70;99.90
16823;DHT22;8528;49.976;11.858;2022-11-15T14:42:49;8.80;99.90
16823;DHT22;8528;49.976;11.858;2022-11-15T14:45:19;9.00;99.90
16823;DHT22;8528;49.976;11.858;2022-11-15T14:47:46;8.90;99.90
16823;DHT22;8528;49.976;11.858;2022-11-15T14:50:16;8.90;99.90
16823;DHT22;8528;49.976;11.858;2022-11-15T14:52:43;8.80;99.90
16823;DHT22;8528;49.976;11.858;2022-11-15T14:55:25;8.70;99.90
16823;DHT22;8528;49.976;11.858;2022-11-15T14:57:59;8.70;99.90
16823;DHT22;8528;49.976;11.858;2022-11-15T15:00:26;8.50;99.90
16823;DHT22;8528;49.976;11.858;2022-11-15T15:03:00;8.40;99.90
16823;DHT22;8528;49.976;11.858;2022-11-15T15:08:01;8.10;99.90
16823;DHT22;8528;49.976;11.858;2022-11-15T15:10:32;8.00;99.90
16823;DHT22;8528;49.976;11.858;2022-11-15T15:13:26;7.80;99.90
16823;DHT22;8528;49.976;11.858;2022-11-15T15:15:55;7.70;99.90
16823;DHT22;8528;49.976;11.858;2022-11-15T15:18:22;7.50;99.90
16823;DHT22;8528;49.976;11.858;2022-11-15T15:20:55;7.30;99.90
16823;DHT22;8528;49.976;11.858;2022-11-15T15:23:25;7.20;99.90
16823;DHT22;8528;49.976;11.858;2022-11-15T15:25:56;7.00;99.90
16823;DHT22;8528;49.976;11.858;2022-11-15T15:28:23;6.90;99.90
16823;DHT22;8528;49.976;11.858;2022-11-15T15:30:54;6.80;99.90
16823;DHT22;8528;49.976;11.858;2022-11-15T15:33:20;6.50;99.90
16823;DHT22;8528;49.976;11.858;2022-11-15T15:35:47;6.30;99.90
16823;DHT22;8528;49.976;11.858;2022-11-15T15:38:17;6.20;99.90
16823;DHT22;8528;49.976;11.858;2022-11-15T15:40:44;6.10;99.90
16823;DHT22;8528;49.976;11.858;2022-11-15T15:43:12;6.10;99.90
16823;DHT22;8528;49.976;11.858;2022-11-15T15:45:41;6.00;99.90
16823;DHT22;8528;49.976;11.858;2022-11-15T15:48:13;5.90;99.90
16823;DHT22;8528;49.976;11.858;2022-11-15T15:50:41;5.70;99.90
16823;DHT22;8528;49.976;11.858;2022-11-15T15:53:12;5.60;99.90
16823;DHT22;8528;49.976;11.858;2022-11-15T15:55:39;5.40;99.90
16823;DHT22;8528;49.976;11.858;2022-11-15T15:58:06;5.30;99.90
16823;DHT22;8528;49.976;11.858;2022-11-15T16:00:35;5.20;99.90
16823;DHT22;8528;49.976;11.858;2022-11-15T16:03:03;5.10;99.90
16823;DHT22;8528;49.976;11.858;2022-11-15T16:05:31;5.10;99.90
16823;DHT22;8528;49.976;11.858;2022-11-15T16:07:57;4.90;99.90
16823;DHT22;8528;49.976;11.858;2022-11-15T16:10:27;4.80;99.90
16823;DHT22;8528;49.976;11.858;2022-11-15T16:12:55;4.60;99.90
16823;DHT22;8528;49.976;11.858;2022-11-15T16:15:24;4.60;99.90
16823;DHT22;8528;49.976;11.858;2022-11-15T16:18:15;4.50;99.90
16823;DHT22;8528;49.976;11.858;2022-11-15T16:20:47;4.50;99.90
16823;DHT22;8528;49.976;11.858;2022-11-15T16:23:17;4.40;99.90
16823;DHT22;8528;49.976;11.858;2022-11-15T16:25:47;4.30;99.90
16823;DHT22;8528;49.976;11.858;2022-11-15T16:28:24;4.20;99.90
16823;DHT22;8528;49.976;11.858;2022-11-15T16:33:30;4.00;99.90
16823;DHT22;8528;49.976;11.858;2022-11-15T16:35:58;4.00;99.90
16823;DHT22;8528;49.976;11.858;2022-11-15T16:38:25;3.90;99.90
16823;DHT22;8528;49.976;11.858;2022-11-15T16:40:52;3.80;99.90
16823;DHT22;8528;49.976;11.858;2022-11-15T16:43:19;3.70;99.90
16823;DHT22;8528;49.976;11.858;2022-11-15T16:45:49;3.70;99.90
16823;DHT22;8528;49.976;11.858;2022-11-15T16:48:26;3.60;99.90
16823;DHT22;8528;49.976;11.858;2022-11-15T16:50:57;3.50;99.90
16823;DHT22;8528;49.976;11.858;2022-11-15T16:53:26;3.50;99.90
16823;DHT22;8528;49.976;11.858;2022-11-15T16:55:54;3.50;99.90
16823;DHT22;8528;49.976;11.858;2022-11-15T16:58:21;3.50;99.90
16823;DHT22;8528;49.976;11.858;2022-11-15T17:00:52;3.40;99.90
16823;DHT22;8528;49.976;11.858;2022-11-15T17:03:20;3.30;99.90
16823;DHT22;8528;49.976;11.858;2022-11-15T17:05:47;3.30;99.90
16823;DHT22;8528;49.976;11.858;2022-11-15T17:08:17;3.20;99.90
16823;DHT22;8528;49.976;11.858;2022-11-15T17:10:46;3.20;99.90
16823;DHT22;8528;49.976;11.858;2022-11-15T17:13:13;3.20;99.90
16823;DHT22;8528;49.976;11.858;2022-11-15T17:15:40;3.10;99.90
16823;DHT22;8528;49.976;11.858;2022-11-15T17:18:10;3.00;99.90
16823;DHT22;8528;49.976;11.858;2022-11-15T17:20:39;3.00;99.90
16823;DHT22;8528;49.976;11.858;2022-11-15T17:23:12;3.00;99.90
16823;DHT22;8528;49.976;11.858;2022-11-15T17:25:40;3.00;99.90
16823;DHT22;8528;49.976;11.858;2022-11-15T17:28:09;3.00;99.90
16823;DHT22;8528;49.976;11.858;2022-11-15T17:30:35;3.10;99.90
16823;DHT22;8528;49.976;11.858;2022-11-15T17:33:03;3.10;99.90
16823;DHT22;8528;49.976;11.858;2022-11-15T17:35:30;3.00;99.90
16823;DHT22;8528;49.976;11.858;2022-11-15T17:37:57;3.00;99.90
16823;DHT22;8528;49.976;11.858;2022-11-15T17:40:26;2.90;99.90
16823;DHT22;8528;49.976;11.858;2022-11-15T17:42:54;2.80;99.90
16823;DHT22;8528;49.976;11.858;2022-11-15T17:45:22;2.80;99.90
16823;DHT22;8528;49.976;11.858;2022-11-15T17:47:49;2.70;99.90
16823;DHT22;8528;49.976;11.858;2022-11-15T17:50:16;2.60;99.90
16823;DHT22;8528;49.976;11.858;2022-11-15T17:52:43;2.60;99.90
16823;DHT22;8528;49.976;11.858;2022-11-15T17:55:10;2.50;99.90
16823;DHT22;8528;49.976;11.858;2022-11-15T17:57:37;2.40;99.90
16823;DHT22;8528;49.976;11.858;2022-11-15T18:00:04;2.40;99.90
16823;DHT22;8528;49.976;11.858;2022-11-15T18:02:31;2.30;99.90
16823;DHT22;8528;49.976;11.858;2022-11-15T18:04:58;2.30;99.90
16823;DHT22;8528;49.976;11.858;2022-11-15T18:07:25;2.20;99.90
16823;DHT22;8528;49.976;11.858;2022-11-15T18:09:52;2.20;99.90